Accueil
METAR-TAF:

METAR-TAF

Aéroports :

Boscombe Down, Angleterre

latitude: 51-10N, longitude: 001-45W, altitude: 124 m

Observation

Le bulletin a été fait il y a 1 heure et 3 minutes, à 21:50 UTC
Vent 16 kt de ouest
Température 11°C
Humidité 94%
Pression 1009 hPa
Visibilité 10 km ou plus
faible bruine

METAR: EGDM 242150Z AUTO 26016KT 9999 -DZ BKN007/// BKN015/// 11/10 Q1009

Heure: 23:53 (22:53 UTC)

Prévision

Le bulletin a été fait il y a 8 heures et 21 minutes, à 14:32 UTC
Prévision valable du 24 à 15 UTC au 24 à 18 UTC
Vent 15 kt de sud/sud-ouest avec des rafales jusqu'à 25 kt
Visibilité 10 km ou plus
Nuages fragmentés à une hauteur de 600 ft
Temporairement
du 24 à 15 UTC au 24 à 18 UTC
Visibilité: 3000 m
Nuages fragmentés à une hauteur de 400 ft
faible bruine

TAF: EGDM 241432Z 2415/2418 21015G25KT 9999 BKN006 TEMPO 2415/2418 3000 -DZ BKN004

Observations et prévisions météorologiques de plus de 4000 aéroports (messages METAR et TAF).

Les stations disponibles sont représentées par des disques jaunes et rouges sur la carte.

Passer la souris dessus pour voir le nom de la station.

Cliquer dessus pour voir les observations et prévisions météorologiques.

Pour changer de carte: cliquez sur les boutons verts avec une croix noire pour zoomer, sur le bouton vert avec un tiret pour effectuer un zoom arrière, ou sur les flèches vertes pour les cartes adjacentes.


METAR-TAF: